Time;durP1;ratioP1;P1;durP2;ratioP2;P2;SDS_P1;SDS_P2;PMS_P1;PMS_P2;Temp;Humidity;BMP_temperature;BMP_pressure;BME280_temperature;BME280_humidity;BME280_pressure;Samples;Min_cycle;Max_cycle;Signal;HPM_P1;HPM_P2
2021/06/29 00:01:07;;;;;;;45.50;21.65;;;;;;;16.54;98.35;101535.16;4955639;28;20106;-69
2021/06/29 00:03:35;;;;;;;53.28;24.30;;;;;;;16.53;98.92;101538.78;4960793;28;20384;-70
2021/06/29 00:06:03;;;;;;;50.63;22.60;;;;;;;16.51;98.69;101529.91;4961423;28;20323;-69
2021/06/29 00:08:31;;;;;;;63.58;25.42;;;;;;;16.49;98.78;101538.06;4961303;28;20470;-69
2021/06/29 00:11:20;;;;;;;52.28;24.17;;;;;;;16.43;99.77;101522.19;4963703;28;20130;-69
2021/06/29 00:13:48;;;;;;;54.50;24.85;;;;;;;16.45;99.94;101512.22;4961306;28;20062;-69
2021/06/29 00:16:16;;;;;;;62.47;27.08;;;;;;;16.41;100.00;101516.00;4955659;28;20063;-69
2021/06/29 00:18:43;;;;;;;60.53;24.70;;;;;;;16.44;99.94;101515.84;4962296;28;20066;-69
2021/06/29 00:21:11;;;;;;;59.22;27.42;;;;;;;16.47;99.73;101509.47;4957472;28;20106;-69
2021/06/29 00:23:39;;;;;;;46.80;22.55;;;;;;;16.43;99.58;101509.59;4960653;28;20062;-69
2021/06/29 00:26:09;;;;;;;53.92;24.98;;;;;;;16.41;100.00;101505.22;4959539;28;20047;-69
2021/06/29 00:28:38;;;;;;;52.10;23.58;;;;;;;16.45;100.00;101509.53;4959304;28;20071;-69
2021/06/29 00:31:07;;;;;;;58.70;25.17;;;;;;;16.45;100.00;101506.84;4959801;28;20110;-69
2021/06/29 00:33:35;;;;;;;57.60;25.30;;;;;;;16.42;100.00;101507.84;4957658;28;20114;-69
2021/06/29 00:36:03;;;;;;;64.65;24.00;;;;;;;16.42;100.00;101521.31;4959282;28;20110;-69
2021/06/29 00:38:31;;;;;;;62.42;24.73;;;;;;;16.39;100.00;101521.44;4964116;28;20280;-69
2021/06/29 00:41:00;;;;;;;53.90;22.73;;;;;;;16.42;100.00;101524.00;4956967;28;20047;-68
2021/06/29 00:43:28;;;;;;;52.78;22.10;;;;;;;16.44;100.00;101515.84;4961862;28;20069;-69
2021/06/29 00:45:57;;;;;;;49.08;21.25;;;;;;;16.49;100.00;101513.81;4958639;28;20138;-69
2021/06/29 00:48:25;;;;;;;44.47;20.45;;;;;;;16.52;99.79;101513.69;4958609;28;20094;-69
2021/06/29 00:50:52;;;;;;;52.00;22.40;;;;;;;16.51;100.00;101513.75;4959654;28;20355;-69
2021/06/29 00:53:20;;;;;;;52.83;22.92;;;;;;;16.59;100.00;101506.19;4960187;28;20066;-69
2021/06/29 00:55:48;;;;;;;56.13;23.70;;;;;;;16.58;100.00;101499.94;4960745;28;20066;-69
2021/06/29 00:58:16;;;;;;;49.35;21.88;;;;;;;16.48;100.00;101489.66;4957331;28;20062;-69
2021/06/29 01:00:43;;;;;;;57.25;24.02;;;;;;;16.35;100.00;101486.66;4959625;28;20051;-69
2021/06/29 01:03:12;;;;;;;61.38;25.20;;;;;;;16.37;100.00;101487.47;4952632;28;20109;-69
2021/06/29 01:05:42;;;;;;;59.58;23.75;;;;;;;16.38;100.00;101478.44;4957886;28;20157;-69
2021/06/29 01:08:10;;;;;;;63.58;25.30;;;;;;;16.34;100.00;101477.69;4956432;28;20535;-69
2021/06/29 01:10:38;;;;;;;55.90;22.92;;;;;;;16.31;100.00;101480.56;4960687;28;20435;-69
2021/06/29 01:13:05;;;;;;;72.20;26.30;;;;;;;16.27;100.00;101480.75;4956214;28;20062;-69
2021/06/29 01:15:33;;;;;;;60.83;22.75;;;;;;;16.30;100.00;101476.09;4957263;28;20071;-69
2021/06/29 01:18:01;;;;;;;69.05;25.20;;;;;;;16.27;100.00;101470.84;4961033;28;20094;-69
2021/06/29 01:20:33;;;;;;;70.70;24.38;;;;;;;16.30;100.00;101473.41;4958192;28;20067;-70
2021/06/29 01:23:04;;;;;;;68.57;25.20;;;;;;;16.33;100.00;101464.28;4955572;28;20062;-69
2021/06/29 01:25:33;;;;;;;70.45;24.38;;;;;;;16.40;100.00;101463.09;4962078;28;20063;-69
2021/06/29 01:28:10;;;;;;;69.72;23.92;;;;;;;16.39;100.00;101454.09;4956130;28;20273;-69
2021/06/29 01:33:24;;;;;;;68.07;23.67;;;;;;;16.35;100.00;101459.72;4953226;28;20763;-72
2021/06/29 01:35:53;;;;;;;60.60;25.20;;;;;;;16.36;100.00;101456.06;4959134;28;20372;-71
2021/06/29 01:38:22;;;;;;;74.88;24.77;;;;;;;16.34;100.00;101466.91;4956987;28;20142;-72
2021/06/29 01:40:50;;;;;;;70.53;22.45;;;;;;;16.31;100.00;101467.09;4955543;28;20063;-72
2021/06/29 01:43:21;;;;;;;62.92;23.27;;;;;;;16.32;100.00;101455.34;4957706;28;20058;-70
2021/06/29 01:45:52;;;;;;;63.88;22.92;;;;;;;16.32;100.00;101467.94;4961450;28;20067;-68
2021/06/29 01:48:22;;;;;;;65.22;24.40;;;;;;;16.33;100.00;101467.88;4959204;28;20066;-70
2021/06/29 01:50:50;;;;;;;74.13;23.63;;;;;;;16.34;100.00;101464.22;4958939;28;20090;-70
2021/06/29 01:53:20;;;;;;;62.03;22.77;;;;;;;16.35;100.00;101467.81;4954166;28;20118;-69
2021/06/29 01:55:48;;;;;;;62.50;22.13;;;;;;;16.29;100.00;101465.38;4956900;28;20157;-68
2021/06/29 01:58:22;;;;;;;65.40;22.90;;;;;;;16.27;100.00;101453.81;4957425;28;20130;-72
2021/06/29 02:00:49;;;;;;;60.80;19.75;;;;;;;16.20;100.00;101450.53;4957294;28;20452;-71
2021/06/29 02:03:17;;;;;;;66.05;23.42;;;;;;;16.22;100.00;101443.25;4960302;28;20105;-72
2021/06/29 02:05:45;;;;;;;69.03;23.25;;;;;;;16.26;100.00;101436.81;4952430;28;20058;-72
2021/06/29 02:08:13;;;;;;;70.10;22.83;;;;;;;16.28;100.00;101434.91;4958060;28;20361;-71
2021/06/29 02:10:42;;;;;;;65.82;24.08;;;;;;;16.30;100.00;101426.75;4957596;28;20442;-72
2021/06/29 02:13:10;;;;;;;70.88;25.52;;;;;;;16.28;100.00;101418.75;4955561;28;20131;-72
2021/06/29 02:15:38;;;;;;;75.47;25.95;;;;;;;16.23;100.00;101418.97;4958688;28;20063;-72
2021/06/29 02:18:06;;;;;;;76.28;26.75;;;;;;;16.28;100.00;101423.25;4959480;28;20083;-72
2021/06/29 02:20:34;;;;;;;81.68;26.23;;;;;;;16.27;100.00;101419.69;4953341;28;20107;-71
2021/06/29 02:23:01;;;;;;;79.38;27.20;;;;;;;16.28;100.00;101426.84;4960586;28;20164;-72
2021/06/29 02:25:29;;;;;;;82.05;27.10;;;;;;;16.33;100.00;101419.41;4952476;28;20067;-72
2021/06/29 02:27:58;;;;;;;80.80;28.45;;;;;;;16.30;100.00;101407.91;4960398;28;20066;-72
2021/06/29 02:30:26;;;;;;;82.43;26.15;;;;;;;16.18;100.00;101407.53;4955425;28;20149;-71
2021/06/29 02:32:54;;;;;;;67.88;23.83;;;;;;;16.18;100.00;101395.91;4955690;28;20106;-72
2021/06/29 02:35:22;;;;;;;63.70;24.60;;;;;;;16.15;100.00;101396.03;4956999;28;20063;-72
2021/06/29 02:37:49;;;;;;;68.70;23.05;;;;;;;16.13;100.00;101396.09;4957291;28;20149;-72
2021/06/29 02:40:17;;;;;;;73.20;26.48;;;;;;;16.11;100.00;101407.91;4955826;28;20097;-71
2021/06/29 02:42:45;;;;;;;64.43;24.42;;;;;;;16.15;100.00;101406.81;4959960;28;20062;-72
2021/06/29 02:45:17;;;;;;;63.72;24.48;;;;;;;16.17;100.00;101394.13;4957380;28;20063;-72
2021/06/29 02:47:46;;;;;;;67.38;22.48;;;;;;;16.13;100.00;101389.84;4954163;28;20070;-71
2021/06/29 02:50:15;;;;;;;60.67;22.70;;;;;;;16.04;100.00;101396.53;4958267;28;20062;-72
2021/06/29 02:52:43;;;;;;;61.88;24.27;;;;;;;16.05;100.00;101382.13;4957786;28;20133;-71
2021/06/29 02:55:13;;;;;;;58.10;23.73;;;;;;;16.09;100.00;101391.81;4956483;28;20069;-71
2021/06/29 02:57:41;;;;;;;56.75;21.25;;;;;;;16.09;100.00;101389.13;4953691;28;20044;-72
2021/06/29 03:00:11;;;;;;;61.08;24.00;;;;;;;16.09;100.00;101394.50;4958336;28;20090;-72
2021/06/29 03:02:40;;;;;;;57.85;22.48;;;;;;;16.15;100.00;101388.81;4953521;28;20397;-71
2021/06/29 03:05:09;;;;;;;61.08;22.60;;;;;;;16.15;100.00;101391.50;4956071;28;21094;-71
2021/06/29 03:07:37;;;;;;;51.58;21.13;;;;;;;16.20;100.00;101392.16;4955456;28;20054;-71
2021/06/29 03:10:07;;;;;;;55.67;20.73;;;;;;;16.18;100.00;101385.13;4953954;28;20066;-72
2021/06/29 03:12:35;;;;;;;61.95;23.48;;;;;;;16.19;100.00;101376.97;4953783;28;20094;-71
2021/06/29 03:15:04;;;;;;;55.80;22.60;;;;;;;16.17;100.00;101375.28;4958353;28;20072;-71
2021/06/29 03:17:32;;;;;;;58.83;23.23;;;;;;;16.14;100.00;101379.00;4954908;28;20066;-71
2021/06/29 03:20:01;;;;;;;55.60;22.27;;;;;;;16.19;100.00;101384.16;4958749;28;20066;-71
2021/06/29 03:22:29;;;;;;;53.75;22.35;;;;;;;16.20;100.00;101384.09;4955308;28;20110;-72
2021/06/29 03:24:57;;;;;;;55.58;22.92;;;;;;;16.21;100.00;101383.16;4964295;28;20367;-72
2021/06/29 03:27:25;;;;;;;52.75;22.60;;;;;;;16.28;100.00;101383.75;4962954;28;20430;-71
2021/06/29 03:29:52;;;;;;;48.70;20.90;;;;;;;16.31;100.00;101389.00;4954166;28;20067;-71
2021/06/29 03:32:20;;;;;;;47.03;20.88;;;;;;;16.31;100.00;101386.31;4955960;28;20225;-71
2021/06/29 03:34:48;;;;;;;54.63;22.23;;;;;;;16.33;100.00;101381.72;4955263;28;20217;-71
2021/06/29 03:37:18;;;;;;;45.58;19.52;;;;;;;16.37;100.00;101387.81;4956236;28;20062;-72
2021/06/29 03:39:47;;;;;;;49.95;21.65;;;;;;;16.36;100.00;101391.44;4955514;28;20054;-71
2021/06/29 03:42:15;;;;;;;46.50;21.80;;;;;;;16.38;100.00;101398.53;4957251;28;20581;-72
2021/06/29 03:44:43;;;;;;;49.75;22.42;;;;;;;16.39;100.00;101388.63;4955404;28;20150;-71
2021/06/29 03:47:14;;;;;;;48.17;19.85;;;;;;;16.40;100.00;101388.53;4958587;28;20071;-70
2021/06/29 03:49:43;;;;;;;55.05;22.65;;;;;;;16.40;100.00;101384.97;4954903;28;20047;-72
2021/06/29 03:52:11;;;;;;;54.35;24.27;;;;;;;16.41;100.00;101398.38;4958046;28;20496;-71
2021/06/29 03:54:40;;;;;;;49.78;22.75;;;;;;;16.44;100.00;101392.81;4953023;28;20059;-72
2021/06/29 03:57:09;;;;;;;59.45;24.67;;;;;;;16.48;100.00;101390.00;4955105;28;20071;-71
2021/06/29 03:59:37;;;;;;;59.00;25.13;;;;;;;16.49;100.00;101394.44;4955958;28;20070;-71
2021/06/29 04:02:05;;;;;;;57.67;24.23;;;;;;;16.52;100.00;101394.28;4956435;28;20043;-72
2021/06/29 04:04:33;;;;;;;55.95;23.92;;;;;;;16.49;100.00;101389.06;4953715;28;20058;-71
2021/06/29 04:07:04;;;;;;;49.25;24.00;;;;;;;16.47;100.00;101383.75;4956006;28;20454;-71
2021/06/29 04:09:32;;;;;;;64.82;26.15;;;;;;;16.50;100.00;101382.69;4956714;28;20160;-72
2021/06/29 04:12:02;;;;;;;53.30;22.85;;;;;;;16.47;100.00;101386.44;4956841;28;20146;-72
2021/06/29 04:14:30;;;;;;;48.88;23.77;;;;;;;16.49;100.00;101379.13;4956625;28;20593;-73
2021/06/29 04:16:58;;;;;;;50.15;22.42;;;;;;;16.49;100.00;101384.53;4954315;28;20063;-73
2021/06/29 04:19:26;;;;;;;54.50;23.15;;;;;;;16.51;100.00;101377.25;4958551;28;20102;-72
2021/06/29 04:21:55;;;;;;;54.42;23.90;;;;;;;16.51;100.00;101377.25;4955691;28;20454;-72
2021/06/29 04:24:24;;;;;;;56.28;25.27;;;;;;;16.54;100.00;101378.94;4954022;28;20443;-72
2021/06/29 04:26:52;;;;;;;60.17;24.88;;;;;;;16.51;100.00;101384.47;4956235;28;20102;-72
2021/06/29 04:29:21;;;;;;;55.33;23.80;;;;;;;16.51;100.00;101387.16;4958776;28;20150;-69
2021/06/29 04:31:50;;;;;;;60.28;25.48;;;;;;;16.48;100.00;101392.69;4957983;28;20531;-69
2021/06/29 04:34:19;;;;;;;60.97;25.90;;;;;;;16.48;100.00;101396.28;4962810;28;20101;-69
2021/06/29 04:36:47;;;;;;;67.15;28.27;;;;;;;16.52;100.00;101402.38;4957248;28;20110;-69
2021/06/29 04:39:15;;;;;;;71.03;27.90;;;;;;;16.54;100.00;101405.88;4958746;28;20865;-69
2021/06/29 04:41:43;;;;;;;68.03;29.40;;;;;;;16.57;100.00;101405.72;4957044;28;20047;-69
2021/06/29 04:44:11;;;;;;;69.93;27.70;;;;;;;16.50;100.00;101404.25;4959596;28;20075;-69
2021/06/29 04:46:41;;;;;;;66.57;26.65;;;;;;;16.59;100.00;101398.44;4955065;28;20058;-69
2021/06/29 04:49:09;;;;;;;63.13;29.65;;;;;;;16.56;100.00;101396.75;4956270;28;20066;-69
2021/06/29 04:51:38;;;;;;;59.38;26.33;;;;;;;16.57;100.00;101395.81;4956550;28;20066;-69
2021/06/29 04:54:06;;;;;;;65.82;27.38;;;;;;;16.58;100.00;101393.97;4960320;28;20471;-69
2021/06/29 04:56:34;;;;;;;63.15;25.35;;;;;;;16.62;100.00;101392.91;4956369;28;20386;-69
2021/06/29 04:59:02;;;;;;;62.55;26.13;;;;;;;16.62;100.00;101404.53;4960840;28;20067;-69
2021/06/29 05:01:30;;;;;;;61.08;28.15;;;;;;;16.64;100.00;101403.59;4962409;28;20059;-69
2021/06/29 05:03:59;;;;;;;55.55;27.13;;;;;;;16.67;100.00;101401.63;4961468;28;20073;-69
2021/06/29 05:06:27;;;;;;;65.07;28.02;;;;;;;16.59;100.00;101399.31;4959707;28;20043;-70
2021/06/29 05:08:55;;;;;;;68.32;28.38;;;;;;;16.62;100.00;101409.94;4957515;28;20098;-69
2021/06/29 05:11:23;;;;;;;66.88;27.90;;;;;;;16.61;100.00;101405.47;4961267;28;20054;-69
2021/06/29 05:13:51;;;;;;;69.93;28.25;;;;;;;16.61;100.00;101410.00;4956042;28;20649;-69
2021/06/29 05:16:19;;;;;;;68.38;28.17;;;;;;;16.59;100.00;101411.91;4959083;28;20141;-72
2021/06/29 05:18:47;;;;;;;66.55;28.83;;;;;;;16.62;100.00;101409.94;4960349;28;20744;-72
2021/06/29 05:21:40;;;;;;;68.57;27.85;;;;;;;16.70;100.00;101419.47;4958916;28;20517;-71
2021/06/29 05:24:31;;;;;;;70.85;29.65;;;;;;;16.74;100.00;101416.53;4963004;28;20073;-74
2021/06/29 05:27:24;;;;;;;64.68;28.33;;;;;;;16.72;100.00;101418.44;4958601;28;20062;-72
2021/06/29 05:30:17;;;;;;;58.03;24.85;;;;;;;16.76;100.00;101420.03;4957238;28;20071;-73
2021/06/29 05:33:08;;;;;;;68.30;28.63;;;;;;;16.67;100.00;101414.22;4956348;28;20310;-73
2021/06/29 05:36:01;;;;;;;56.33;27.67;;;;;;;16.69;100.00;101417.72;4962869;28;20441;-72
2021/06/29 05:38:54;;;;;;;58.00;26.60;;;;;;;16.69;100.00;101415.91;4956303;28;20473;-72
2021/06/29 05:41:46;;;;;;;58.45;25.27;;;;;;;16.68;100.00;101421.34;4960185;28;20377;-73
2021/06/29 05:44:38;;;;;;;62.42;25.90;;;;;;;16.61;100.00;101421.63;4957883;28;20114;-72
2021/06/29 05:47:08;;;;;;;64.82;28.75;;;;;;;16.60;100.00;101422.59;4960309;28;20066;-74
2021/06/29 05:49:37;;;;;;;59.97;28.50;;;;;;;16.73;100.00;101422.00;4957437;28;20063;-74
2021/06/29 05:52:05;;;;;;;54.15;25.75;;;;;;;16.74;100.00;101421.94;4961433;28;20142;-73
2021/06/29 05:54:59;;;;;;;66.43;27.38;;;;;;;16.76;100.00;101432.66;4955239;28;21027;-73
2021/06/29 05:57:51;;;;;;;70.40;28.58;;;;;;;16.74;100.00;101424.63;4958468;28;20052;-72
2021/06/29 06:00:20;;;;;;;63.92;26.33;;;;;;;16.74;100.00;101431.84;4954031;28;20051;-73
2021/06/29 06:02:52;;;;;;;60.50;25.15;;;;;;;16.85;100.00;101434.03;4958113;28;20067;-71
2021/06/29 06:05:20;;;;;;;58.78;24.38;;;;;;;16.88;100.00;101433.91;4956971;28;20066;-72
2021/06/29 06:07:48;;;;;;;58.33;25.30;;;;;;;16.86;100.00;101431.28;4959581;28;20061;-71
2021/06/29 06:10:17;;;;;;;55.67;25.30;;;;;;;16.90;100.00;101434.69;4955013;28;20098;-72
2021/06/29 06:12:45;;;;;;;56.90;26.38;;;;;;;16.94;100.00;101441.66;4957732;28;20090;-72
2021/06/29 06:15:13;;;;;;;62.35;26.80;;;;;;;16.96;100.00;101434.41;4955986;28;20062;-72
2021/06/29 06:17:41;;;;;;;62.38;27.25;;;;;;;16.96;100.00;101429.88;4956728;28;20094;-69
2021/06/29 06:20:11;;;;;;;54.08;25.38;;;;;;;17.00;100.00;101433.28;4955741;28;20067;-69
2021/06/29 06:22:39;;;;;;;57.28;26.83;;;;;;;17.01;100.00;101439.53;4957638;28;21447;-69
2021/06/29 06:25:09;;;;;;;59.10;27.30;;;;;;;17.02;100.00;101434.06;4956936;28;20074;-69
2021/06/29 06:28:04;;;;;;;56.97;26.80;;;;;;;17.12;100.00;101429.09;4957319;28;20086;-68
2021/06/29 06:30:33;;;;;;;55.85;25.38;;;;;;;17.22;100.00;101433.09;4956330;28;20059;-69
2021/06/29 06:33:01;;;;;;;56.72;27.55;;;;;;;17.27;100.00;101430.16;4954988;28;20440;-69
2021/06/29 06:35:53;;;;;;;64.53;28.13;;;;;;;17.23;100.00;101429.44;4954545;28;20154;-69
2021/06/29 06:38:20;;;;;;;61.97;28.38;;;;;;;17.21;100.00;101419.69;4957230;28;20074;-69
2021/06/29 06:40:48;;;;;;;49.72;24.67;;;;;;;17.31;100.00;101413.72;4957130;28;20067;-69
2021/06/29 06:43:17;;;;;;;52.85;26.52;;;;;;;17.40;100.00;101420.50;4959890;28;20603;-70
2021/06/29 06:45:45;;;;;;;55.78;26.13;;;;;;;17.55;100.00;101417.00;4957237;28;20133;-68
2021/06/29 06:48:13;;;;;;;58.63;28.00;;;;;;;17.69;100.00;101418.06;4958429;28;20090;-70
2021/06/29 06:51:05;;;;;;;55.95;25.63;;;;;;;17.69;99.39;101416.28;4955340;28;20058;-69
2021/06/29 06:53:58;;;;;;;52.08;27.60;;;;;;;17.60;98.67;101427.53;4958353;28;20059;-69
2021/06/29 06:56:49;;;;;;;51.33;26.77;;;;;;;17.59;98.84;101427.63;4956593;28;20315;-69
2021/06/29 06:59:20;;;;;;;51.00;28.58;;;;;;;17.63;99.41;101429.22;4958610;28;20051;-68
2021/06/29 07:01:48;;;;;;;53.83;26.35;;;;;;;17.81;100.00;101413.84;4954207;28;20075;-69
2021/06/29 07:04:18;;;;;;;57.33;27.88;;;;;;;17.81;98.97;101413.84;4961570;28;20073;-70
2021/06/29 07:06:46;;;;;;;54.88;29.33;;;;;;;17.81;97.93;101416.56;4955566;28;20067;-68
2021/06/29 07:09:16;;;;;;;52.92;27.55;;;;;;;17.71;98.28;101418.91;4958780;28;20061;-69
2021/06/29 07:11:48;;;;;;;56.17;27.80;;;;;;;17.65;98.61;101427.31;4953355;28;20131;-69
2021/06/29 07:14:41;;;;;;;57.80;29.13;;;;;;;17.84;99.21;101429.91;4957453;28;20301;-72
2021/06/29 07:17:34;;;;;;;56.20;27.17;;;;;;;17.79;97.87;101435.53;4956655;28;20445;-70
2021/06/29 07:20:03;;;;;;;53.53;26.90;;;;;;;17.77;98.23;101434.75;4958060;28;20074;-68
2021/06/29 07:22:31;;;;;;;50.33;26.63;;;;;;;17.73;97.75;101439.44;4954694;28;20173;-69
2021/06/29 07:24:59;;;;;;;55.47;26.58;;;;;;;17.80;97.44;101428.31;4957935;28;20087;-68
2021/06/29 07:27:50;;;;;;;51.65;27.50;;;;;;;17.85;97.39;101423.56;4951454;28;20066;-69
2021/06/29 07:30:44;;;;;;;53.42;26.50;;;;;;;17.88;97.69;101431.53;4959110;28;20393;-69
2021/06/29 07:33:37;;;;;;;49.23;24.90;;;;;;;17.98;96.90;101421.97;4955879;28;20067;-68
2021/06/29 07:36:05;;;;;;;49.53;25.55;;;;;;;18.15;97.27;101421.06;4957393;28;20439;-68
2021/06/29 07:38:33;;;;;;;49.38;25.38;;;;;;;18.00;95.97;101414.66;4954523;28;20382;-68
2021/06/29 07:41:25;;;;;;;50.50;25.38;;;;;;;18.15;96.77;101417.47;4955077;28;20343;-71
2021/06/29 07:43:52;;;;;;;53.22;26.27;;;;;;;18.36;97.53;101423.53;4953316;28;20098;-71
2021/06/29 07:46:22;;;;;;;51.15;26.35;;;;;;;18.53;97.60;101426.16;4954616;28;20165;-71
2021/06/29 07:48:49;;;;;;;56.47;27.10;;;;;;;18.60;96.35;101422.16;4953953;28;20354;-71
2021/06/29 07:51:17;;;;;;;49.67;26.65;;;;;;;18.44;94.34;101424.00;4959942;28;20097;-71
2021/06/29 07:53:47;;;;;;;48.13;26.95;;;;;;;18.64;95.79;101434.53;4952267;28;20063;-72
2021/06/29 07:56:15;;;;;;;50.85;27.10;;;;;;;18.70;94.04;101421.63;4956049;28;20166;-71
2021/06/29 07:58:45;;;;;;;52.40;29.25;;;;;;;18.77;93.56;101421.19;4949935;28;20138;-71
2021/06/29 08:01:13;;;;;;;50.75;27.35;;;;;;;18.80;94.25;101420.16;4955613;28;20117;-71
2021/06/29 08:03:42;;;;;;;50.20;27.00;;;;;;;18.81;93.34;101427.28;4954688;28;20702;-72
2021/06/29 08:06:11;;;;;;;47.63;26.88;;;;;;;18.92;94.19;101424.88;4960174;28;20047;-71
2021/06/29 08:08:39;;;;;;;52.67;29.95;;;;;;;18.78;92.57;101422.94;4958965;28;20099;-71
2021/06/29 08:11:09;;;;;;;58.35;31.60;;;;;;;18.71;92.13;101426.97;4961335;28;20317;-71
2021/06/29 08:13:38;;;;;;;56.03;28.95;;;;;;;18.94;91.90;101413.97;4960698;28;20086;-71
2021/06/29 08:16:09;;;;;;;47.67;24.73;;;;;;;18.97;90.73;101424.63;4961123;28;20338;-71
2021/06/29 08:18:37;;;;;;;37.95;20.38;;;;;;;18.63;92.28;101415.72;4962227;28;20144;-71
2021/06/29 08:21:07;;;;;;;38.97;19.77;;;;;;;18.47;92.73;101424.69;4960740;28;20128;-71
2021/06/29 08:23:59;;;;;;;38.25;21.05;;;;;;;18.56;92.65;101417.00;4963721;28;20059;-71
2021/06/29 08:26:52;;;;;;;41.17;21.90;;;;;;;18.64;91.50;101415.63;4957567;28;20330;-70
2021/06/29 08:29:44;;;;;;;42.67;22.13;;;;;;;18.70;91.25;101410.81;4960668;28;20443;-71
2021/06/29 08:32:37;;;;;;;35.97;19.90;;;;;;;18.96;90.27;101409.34;4958372;28;20059;-70
2021/06/29 08:35:30;;;;;;;;;;;;;;;19.35;90.44;101410.66;4960257;28;20058;-70
2021/06/29 08:38:24;;;;;;;45.80;23.50;;;;;;;19.45;88.84;101400.16;4959922;28;19926;-70
2021/06/29 08:41:16;;;;;;;44.88;23.70;;;;;;;19.54;88.10;101410.41;4957985;28;20605;-71
2021/06/29 08:43:44;;;;;;;46.30;23.67;;;;;;;19.32;87.87;101405.41;4959538;28;20401;-71
2021/06/29 08:46:12;;;;;;;45.05;24.48;;;;;;;19.29;86.71;101413.72;4956204;28;20071;-71
2021/06/29 08:48:40;;;;;;;45.53;22.67;;;;;;;19.40;87.81;101412.13;4959942;28;20577;-71
2021/06/29 08:51:08;;;;;;;43.45;22.58;;;;;;;19.53;87.48;101412.25;4957398;28;20062;-71
2021/06/29 08:53:37;;;;;;;46.60;23.98;;;;;;;19.55;85.70;101421.16;4958208;28;20122;-72
2021/06/29 08:56:06;;;;;;;42.97;22.98;;;;;;;20.00;85.25;101410.31;4958319;28;20139;-72
2021/06/29 08:58:34;;;;;;;43.72;22.42;;;;;;;20.08;84.33;101413.41;4957229;28;20067;-72
2021/06/29 09:01:03;;;;;;;43.83;22.08;;;;;;;19.95;83.98;101410.63;4957586;28;20062;-72
2021/06/29 09:03:31;;;;;;;45.00;22.00;;;;;;;20.14;84.12;101418.44;4958704;28;20062;-72
2021/06/29 09:05:59;;;;;;;39.15;20.70;;;;;;;20.27;82.86;101423.94;4953190;28;20097;-72
2021/06/29 09:08:27;;;;;;;41.47;21.85;;;;;;;20.17;82.75;101419.22;4957766;28;20722;-72
2021/06/29 09:11:09;;;;;;;36.85;21.52;;;;;;;20.15;82.72;101420.16;4956521;28;20090;-70
2021/06/29 09:13:38;;;;;;;37.97;20.27;;;;;;;20.79;81.64;101422.44;4960025;28;20671;-70
2021/06/29 09:16:07;;;;;;;33.75;18.48;;;;;;;20.74;79.20;101424.59;4959028;28;20098;-71
2021/06/29 09:18:39;;;;;;;34.22;18.02;;;;;;;21.20;78.00;101421.50;4952523;28;20063;-71
2021/06/29 09:21:08;;;;;;;26.40;15.95;;;;;;;21.16;77.28;101419.97;4959099;28;20143;-72
2021/06/29 09:23:38;;;;;;;26.45;15.57;;;;;;;20.72;77.67;101421.09;4955713;28;20074;-71
2021/06/29 09:26:12;;;;;;;28.15;16.48;;;;;;;21.33;76.70;101415.25;4957553;28;20055;-71
2021/06/29 09:28:42;;;;;;;28.48;16.13;;;;;;;21.00;77.35;101413.84;4958726;28;20125;-70
2021/06/29 09:31:10;;;;;;;28.48;16.27;;;;;;;21.33;77.20;101413.41;4961491;28;20358;-70
2021/06/29 09:33:40;;;;;;;25.15;15.35;;;;;;;20.95;76.84;101405.16;4958592;28;20121;-70
2021/06/29 09:36:10;;;;;;;24.65;14.98;;;;;;;20.78;78.43;101406.28;4959618;28;20067;-70
2021/06/29 09:38:40;;;;;;;24.90;14.85;;;;;;;21.29;77.83;101411.00;4954468;28;20074;-70
2021/06/29 09:41:13;;;;;;;29.08;16.50;;;;;;;21.19;76.42;101400.78;4958794;28;20438;-70
2021/06/29 09:43:43;;;;;;;23.63;15.30;;;;;;;21.59;75.70;101403.50;4955761;28;20105;-68
2021/06/29 09:46:12;;;;;;;26.27;14.65;;;;;;;21.15;76.70;101414.66;4957008;28;20067;-67
2021/06/29 09:48:44;;;;;;;25.70;14.93;;;;;;;20.79;76.67;101411.59;4957298;28;20098;-68
2021/06/29 09:51:34;;;;;;;27.00;15.75;;;;;;;20.89;77.33;101414.56;4958089;28;20094;-68
2021/06/29 09:54:04;;;;;;;26.08;13.68;;;;;;;21.57;74.40;101410.88;4959622;28;20067;-68
2021/06/29 09:56:37;;;;;;;27.80;14.00;;;;;;;21.68;75.17;101412.84;4959119;28;20066;-67
2021/06/29 09:59:11;;;;;;;24.38;13.98;;;;;;;21.82;73.51;101423.59;4961994;28;20074;-67
2021/06/29 10:01:39;;;;;;;24.13;13.82;;;;;;;21.05;74.54;101423.41;4961999;28;20814;-67
2021/06/29 10:04:07;;;;;;;25.05;13.23;;;;;;;22.18;71.57;101416.50;4955128;28;20077;-69
2021/06/29 10:06:36;;;;;;;25.92;13.75;;;;;;;22.75;71.78;101425.16;4960665;28;20070;-67
2021/06/29 10:09:06;;;;;;;24.02;12.70;;;;;;;22.22;72.16;101422.63;4957611;28;20081;-67
2021/06/29 10:11:37;;;;;;;27.02;13.18;;;;;;;21.95;71.68;101426.31;4958743;28;20059;-67
2021/06/29 10:14:06;;;;;;;18.63;11.27;;;;;;;22.24;70.55;101423.38;4961116;28;20480;-67
2021/06/29 10:16:38;;;;;;;25.83;12.73;;;;;;;21.94;70.77;101432.72;4959586;28;20066;-71
2021/06/29 10:19:17;;;;;;;21.83;12.73;;;;;;;21.54;73.04;101440.97;4957269;28;20476;-69
2021/06/29 10:21:48;;;;;;;21.02;11.93;;;;;;;21.42;72.80;101441.78;4959994;28;20098;-68
2021/06/29 10:24:20;;;;;;;27.05;12.68;;;;;;;21.17;74.01;101453.41;4954679;28;20114;-70
2021/06/29 10:26:51;;;;;;;22.95;12.57;;;;;;;21.11;74.30;101453.81;4961411;28;20453;-69
2021/06/29 10:29:20;;;;;;;22.92;12.52;;;;;;;21.49;71.77;101445.84;4959621;28;20066;-68
2021/06/29 10:31:50;;;;;;;22.27;11.70;;;;;;;20.96;73.06;101455.69;4956116;28;20509;-69
2021/06/29 10:34:19;;;;;;;24.25;13.07;;;;;;;20.66;74.69;101445.91;4955120;28;20067;-68
2021/06/29 10:36:49;;;;;;;24.15;12.55;;;;;;;20.61;75.70;101446.16;4953582;28;20043;-68
2021/06/29 10:39:20;;;;;;;31.17;14.07;;;;;;;20.33;77.02;101450.66;4957752;28;20692;-69
2021/06/29 10:41:53;;;;;;;26.50;12.77;;;;;;;20.46;76.46;101439.03;4954759;28;20070;-69
2021/06/29 10:44:23;;;;;;;30.38;13.13;;;;;;;20.44;76.26;101443.69;4955177;28;20319;-68
2021/06/29 10:46:52;;;;;;;31.48;14.50;;;;;;;20.40;76.52;101440.31;4957672;28;20062;-68
2021/06/29 10:49:34;;;;;;;31.38;14.50;;;;;;;20.83;75.60;101442.09;4955007;28;20514;-70
2021/06/29 10:52:06;;;;;;;28.77;15.98;;;;;;;20.31;76.36;101451.72;4957806;28;20071;-69
2021/06/29 10:54:47;;;;;;;27.83;14.00;;;;;;;20.20;77.23;101443.41;4960986;28;20105;-68
2021/06/29 10:57:19;;;;;;;28.33;13.40;;;;;;;19.85;77.30;101449.16;4951711;28;20204;-68
2021/06/29 10:59:50;;;;;;;34.30;14.38;;;;;;;19.92;76.37;101455.94;4961829;28;20038;-70
2021/06/29 11:02:31;;;;;;;29.98;14.27;;;;;;;20.25;76.33;101458.41;4953441;28;20165;-68
2021/06/29 11:05:01;;;;;;;35.22;14.27;;;;;;;19.93;77.37;101460.41;4959902;28;20085;-68
2021/06/29 11:07:43;;;;;;;29.60;13.70;;;;;;;19.68;78.14;101447.47;4958565;28;20063;-68
2021/06/29 11:10:26;;;;;;;30.88;14.10;;;;;;;19.39;78.95;101450.97;4956415;28;20255;-68
2021/06/29 11:12:58;;;;;;;28.10;13.82;;;;;;;19.32;80.09;101459.53;4959503;28;20187;-69
2021/06/29 11:15:48;;;;;;;24.17;11.70;;;;;;;19.31;80.72;101458.66;4957022;28;20141;-68
2021/06/29 11:18:18;;;;;;;30.80;13.48;;;;;;;19.13;80.38;101444.38;4956929;28;20066;-68
2021/06/29 11:20:47;;;;;;;29.58;12.95;;;;;;;19.34;80.58;101450.38;4961473;28;20117;-68
2021/06/29 11:23:30;;;;;;;28.80;12.20;;;;;;;19.66;78.77;101439.44;4954876;28;20469;-68
2021/06/29 11:26:00;;;;;;;26.83;11.63;;;;;;;19.84;77.78;101434.78;4961018;28;20070;-69
2021/06/29 11:28:50;;;;;;;22.88;10.30;;;;;;;19.81;77.22;101428.69;4953946;28;20071;-69